sensor_id;sensor_type;location;lat;lon;timestamp;P1;durP1;ratioP1;P2;durP2;ratioP2
19903;SDS011;10114;50.970;4.962;2023-05-07T00:01:51;14.95;;;9.63;;
19903;SDS011;10114;50.970;4.962;2023-05-07T00:04:18;12.75;;;8.75;;
19903;SDS011;10114;50.970;4.962;2023-05-07T00:06:44;14.75;;;8.60;;
19903;SDS011;10114;50.970;4.962;2023-05-07T00:09:10;17.30;;;8.70;;
19903;SDS011;10114;50.970;4.962;2023-05-07T00:11:36;14.48;;;8.60;;
19903;SDS011;10114;50.970;4.962;2023-05-07T00:14:02;17.20;;;9.20;;
19903;SDS011;10114;50.970;4.962;2023-05-07T00:16:28;13.32;;;8.60;;
19903;SDS011;10114;50.970;4.962;2023-05-07T00:18:54;12.48;;;8.75;;
19903;SDS011;10114;50.970;4.962;2023-05-07T00:21:20;14.50;;;8.77;;
19903;SDS011;10114;50.970;4.962;2023-05-07T00:23:46;14.02;;;9.00;;
19903;SDS011;10114;50.970;4.962;2023-05-07T00:26:12;13.07;;;8.20;;
19903;SDS011;10114;50.970;4.962;2023-05-07T00:28:38;14.93;;;9.25;;
19903;SDS011;10114;50.970;4.962;2023-05-07T00:31:04;13.77;;;8.93;;
19903;SDS011;10114;50.970;4.962;2023-05-07T00:33:30;16.92;;;8.90;;
19903;SDS011;10114;50.970;4.962;2023-05-07T00:35:56;13.10;;;9.23;;
19903;SDS011;10114;50.970;4.962;2023-05-07T00:38:22;15.38;;;8.57;;
19903;SDS011;10114;50.970;4.962;2023-05-07T00:40:48;16.85;;;10.02;;
19903;SDS011;10114;50.970;4.962;2023-05-07T00:43:16;12.85;;;8.18;;
19903;SDS011;10114;50.970;4.962;2023-05-07T00:45:42;16.40;;;9.05;;
19903;SDS011;10114;50.970;4.962;2023-05-07T00:48:08;17.35;;;9.52;;
19903;SDS011;10114;50.970;4.962;2023-05-07T00:50:34;14.27;;;9.90;;
19903;SDS011;10114;50.970;4.962;2023-05-07T00:53:00;12.52;;;9.07;;
19903;SDS011;10114;50.970;4.962;2023-05-07T00:55:27;17.65;;;9.82;;
19903;SDS011;10114;50.970;4.962;2023-05-07T00:57:53;11.73;;;7.95;;
19903;SDS011;10114;50.970;4.962;2023-05-07T01:00:19;14.65;;;8.05;;
19903;SDS011;10114;50.970;4.962;2023-05-07T01:02:46;14.15;;;8.10;;
19903;SDS011;10114;50.970;4.962;2023-05-07T01:05:12;13.48;;;7.80;;
19903;SDS011;10114;50.970;4.962;2023-05-07T01:07:39;13.88;;;7.57;;
19903;SDS011;10114;50.970;4.962;2023-05-07T01:10:06;14.57;;;7.80;;
19903;SDS011;10114;50.970;4.962;2023-05-07T01:12:33;13.48;;;7.45;;
19903;SDS011;10114;50.970;4.962;2023-05-07T01:15:00;14.32;;;7.22;;
19903;SDS011;10114;50.970;4.962;2023-05-07T01:17:26;16.73;;;7.57;;
19903;SDS011;10114;50.970;4.962;2023-05-07T01:19:52;14.10;;;8.60;;
19903;SDS011;10114;50.970;4.962;2023-05-07T01:22:31;11.20;;;7.38;;
19903;SDS011;10114;50.970;4.962;2023-05-07T01:24:57;11.63;;;8.07;;
19903;SDS011;10114;50.970;4.962;2023-05-07T01:27:24;13.20;;;8.68;;
19903;SDS011;10114;50.970;4.962;2023-05-07T01:29:51;13.98;;;8.05;;
19903;SDS011;10114;50.970;4.962;2023-05-07T01:32:17;13.00;;;7.57;;
19903;SDS011;10114;50.970;4.962;2023-05-07T01:34:44;13.48;;;8.57;;
19903;SDS011;10114;50.970;4.962;2023-05-07T01:37:11;14.20;;;8.95;;
19903;SDS011;10114;50.970;4.962;2023-05-07T01:39:38;13.32;;;8.55;;
19903;SDS011;10114;50.970;4.962;2023-05-07T01:42:05;14.35;;;8.70;;
19903;SDS011;10114;50.970;4.962;2023-05-07T01:44:31;16.13;;;9.48;;
19903;SDS011;10114;50.970;4.962;2023-05-07T01:46:58;15.98;;;9.15;;
19903;SDS011;10114;50.970;4.962;2023-05-07T01:49:24;13.38;;;9.13;;
19903;SDS011;10114;50.970;4.962;2023-05-07T01:51:51;14.57;;;9.45;;
19903;SDS011;10114;50.970;4.962;2023-05-07T01:54:17;15.90;;;9.77;;
19903;SDS011;10114;50.970;4.962;2023-05-07T01:56:43;14.98;;;9.70;;
19903;SDS011;10114;50.970;4.962;2023-05-07T01:59:09;13.90;;;9.20;;
19903;SDS011;10114;50.970;4.962;2023-05-07T02:01:35;15.05;;;9.20;;
19903;SDS011;10114;50.970;4.962;2023-05-07T02:04:01;15.63;;;9.20;;
19903;SDS011;10114;50.970;4.962;2023-05-07T02:06:27;15.30;;;9.25;;
19903;SDS011;10114;50.970;4.962;2023-05-07T02:08:53;16.15;;;9.38;;
19903;SDS011;10114;50.970;4.962;2023-05-07T02:11:19;16.13;;;9.35;;
19903;SDS011;10114;50.970;4.962;2023-05-07T02:13:45;13.73;;;9.10;;
19903;SDS011;10114;50.970;4.962;2023-05-07T02:16:11;17.67;;;9.00;;
19903;SDS011;10114;50.970;4.962;2023-05-07T02:18:39;13.80;;;8.55;;
19903;SDS011;10114;50.970;4.962;2023-05-07T02:21:05;17.30;;;8.32;;
19903;SDS011;10114;50.970;4.962;2023-05-07T02:23:31;13.95;;;8.55;;
19903;SDS011;10114;50.970;4.962;2023-05-07T02:25:57;13.88;;;9.13;;
19903;SDS011;10114;50.970;4.962;2023-05-07T02:28:23;16.92;;;9.02;;
19903;SDS011;10114;50.970;4.962;2023-05-07T02:30:49;17.88;;;8.43;;
19903;SDS011;10114;50.970;4.962;2023-05-07T02:33:15;16.98;;;9.35;;
19903;SDS011;10114;50.970;4.962;2023-05-07T02:35:41;16.40;;;9.48;;
19903;SDS011;10114;50.970;4.962;2023-05-07T02:38:07;14.70;;;9.35;;
19903;SDS011;10114;50.970;4.962;2023-05-07T02:40:35;14.93;;;9.00;;
19903;SDS011;10114;50.970;4.962;2023-05-07T02:43:04;17.90;;;9.75;;
19903;SDS011;10114;50.970;4.962;2023-05-07T02:45:31;13.43;;;8.68;;
19903;SDS011;10114;50.970;4.962;2023-05-07T02:47:57;16.42;;;8.85;;
19903;SDS011;10114;50.970;4.962;2023-05-07T02:50:23;15.20;;;8.68;;
19903;SDS011;10114;50.970;4.962;2023-05-07T02:52:50;16.75;;;9.50;;
19903;SDS011;10114;50.970;4.962;2023-05-07T02:55:16;15.82;;;8.82;;
19903;SDS011;10114;50.970;4.962;2023-05-07T02:57:42;17.00;;;9.40;;
19903;SDS011;10114;50.970;4.962;2023-05-07T03:00:14;14.73;;;8.70;;
19903;SDS011;10114;50.970;4.962;2023-05-07T03:02:41;14.95;;;8.73;;
19903;SDS011;10114;50.970;4.962;2023-05-07T03:05:07;17.52;;;8.55;;
19903;SDS011;10114;50.970;4.962;2023-05-07T03:07:34;17.08;;;9.18;;
19903;SDS011;10114;50.970;4.962;2023-05-07T03:10:00;15.13;;;8.63;;
19903;SDS011;10114;50.970;4.962;2023-05-07T03:12:26;15.18;;;8.73;;
19903;SDS011;10114;50.970;4.962;2023-05-07T03:14:52;12.30;;;8.70;;
19903;SDS011;10114;50.970;4.962;2023-05-07T03:17:18;14.23;;;9.32;;
19903;SDS011;10114;50.970;4.962;2023-05-07T03:19:44;15.27;;;9.30;;
19903;SDS011;10114;50.970;4.962;2023-05-07T03:22:10;13.82;;;8.82;;
19903;SDS011;10114;50.970;4.962;2023-05-07T03:24:36;14.68;;;8.82;;
19903;SDS011;10114;50.970;4.962;2023-05-07T03:27:02;18.33;;;9.40;;
19903;SDS011;10114;50.970;4.962;2023-05-07T03:29:28;14.23;;;8.75;;
19903;SDS011;10114;50.970;4.962;2023-05-07T03:31:55;14.38;;;8.68;;
19903;SDS011;10114;50.970;4.962;2023-05-07T03:34:21;15.13;;;9.43;;
19903;SDS011;10114;50.970;4.962;2023-05-07T03:36:50;19.02;;;9.90;;
19903;SDS011;10114;50.970;4.962;2023-05-07T03:39:16;15.38;;;8.88;;
19903;SDS011;10114;50.970;4.962;2023-05-07T03:41:42;16.83;;;9.00;;
19903;SDS011;10114;50.970;4.962;2023-05-07T03:44:08;15.00;;;9.65;;
19903;SDS011;10114;50.970;4.962;2023-05-07T03:46:34;16.00;;;9.25;;
19903;SDS011;10114;50.970;4.962;2023-05-07T03:49:00;15.15;;;9.32;;
19903;SDS011;10114;50.970;4.962;2023-05-07T03:51:26;14.05;;;9.25;;
19903;SDS011;10114;50.970;4.962;2023-05-07T03:53:52;15.43;;;9.00;;
19903;SDS011;10114;50.970;4.962;2023-05-07T03:56:19;15.93;;;9.35;;
19903;SDS011;10114;50.970;4.962;2023-05-07T03:58:46;17.55;;;8.48;;
19903;SDS011;10114;50.970;4.962;2023-05-07T04:01:13;15.98;;;9.13;;
19903;SDS011;10114;50.970;4.962;2023-05-07T04:03:39;15.00;;;9.23;;
19903;SDS011;10114;50.970;4.962;2023-05-07T04:06:05;16.80;;;9.48;;
19903;SDS011;10114;50.970;4.962;2023-05-07T04:08:31;16.90;;;9.93;;
19903;SDS011;10114;50.970;4.962;2023-05-07T04:10:57;16.30;;;9.68;;
19903;SDS011;10114;50.970;4.962;2023-05-07T04:13:23;14.45;;;9.75;;
19903;SDS011;10114;50.970;4.962;2023-05-07T04:15:50;16.50;;;9.82;;
19903;SDS011;10114;50.970;4.962;2023-05-07T04:18:16;13.32;;;8.82;;
19903;SDS011;10114;50.970;4.962;2023-05-07T04:20:42;20.20;;;9.85;;
19903;SDS011;10114;50.970;4.962;2023-05-07T04:23:08;14.55;;;9.63;;
19903;SDS011;10114;50.970;4.962;2023-05-07T04:25:34;14.90;;;9.40;;
19903;SDS011;10114;50.970;4.962;2023-05-07T04:28:00;15.98;;;9.25;;
19903;SDS011;10114;50.970;4.962;2023-05-07T04:30:26;16.55;;;9.35;;
19903;SDS011;10114;50.970;4.962;2023-05-07T04:32:52;15.65;;;9.10;;
19903;SDS011;10114;50.970;4.962;2023-05-07T04:35:18;14.35;;;8.70;;
19903;SDS011;10114;50.970;4.962;2023-05-07T04:37:44;15.00;;;8.95;;
19903;SDS011;10114;50.970;4.962;2023-05-07T04:40:10;14.75;;;8.30;;
19903;SDS011;10114;50.970;4.962;2023-05-07T04:42:36;16.38;;;8.75;;
19903;SDS011;10114;50.970;4.962;2023-05-07T04:45:02;13.20;;;8.65;;
19903;SDS011;10114;50.970;4.962;2023-05-07T04:47:29;14.60;;;9.27;;
19903;SDS011;10114;50.970;4.962;2023-05-07T04:49:56;14.65;;;8.18;;
19903;SDS011;10114;50.970;4.962;2023-05-07T04:52:23;12.95;;;8.75;;
19903;SDS011;10114;50.970;4.962;2023-05-07T04:54:49;12.93;;;8.88;;
19903;SDS011;10114;50.970;4.962;2023-05-07T04:57:15;13.13;;;8.40;;
19903;SDS011;10114;50.970;4.962;2023-05-07T04:59:42;13.15;;;8.55;;
19903;SDS011;10114;50.970;4.962;2023-05-07T05:02:09;16.20;;;9.25;;
19903;SDS011;10114;50.970;4.962;2023-05-07T05:04:35;14.60;;;8.95;;
19903;SDS011;10114;50.970;4.962;2023-05-07T05:07:02;14.68;;;8.98;;
19903;SDS011;10114;50.970;4.962;2023-05-07T05:09:31;18.52;;;9.57;;
19903;SDS011;10114;50.970;4.962;2023-05-07T05:11:57;14.98;;;8.57;;
19903;SDS011;10114;50.970;4.962;2023-05-07T05:14:23;12.00;;;8.25;;
19903;SDS011;10114;50.970;4.962;2023-05-07T05:16:49;15.15;;;8.65;;
19903;SDS011;10114;50.970;4.962;2023-05-07T05:19:15;15.82;;;9.00;;
19903;SDS011;10114;50.970;4.962;2023-05-07T05:21:41;15.65;;;8.75;;
19903;SDS011;10114;50.970;4.962;2023-05-07T05:24:07;16.33;;;10.10;;
19903;SDS011;10114;50.970;4.962;2023-05-07T05:26:33;16.75;;;9.15;;
19903;SDS011;10114;50.970;4.962;2023-05-07T05:28:59;13.80;;;9.18;;
19903;SDS011;10114;50.970;4.962;2023-05-07T05:31:25;15.65;;;9.05;;
19903;SDS011;10114;50.970;4.962;2023-05-07T05:33:51;15.40;;;9.68;;
19903;SDS011;10114;50.970;4.962;2023-05-07T05:36:17;13.18;;;8.38;;
19903;SDS011;10114;50.970;4.962;2023-05-07T05:38:44;12.27;;;8.60;;
19903;SDS011;10114;50.970;4.962;2023-05-07T05:41:11;12.68;;;8.32;;
19903;SDS011;10114;50.970;4.962;2023-05-07T05:43:38;15.65;;;8.70;;
19903;SDS011;10114;50.970;4.962;2023-05-07T05:46:04;13.27;;;8.38;;
19903;SDS011;10114;50.970;4.962;2023-05-07T05:48:31;12.48;;;7.82;;
19903;SDS011;10114;50.970;4.962;2023-05-07T05:50:57;13.63;;;8.98;;
19903;SDS011;10114;50.970;4.962;2023-05-07T05:53:23;14.35;;;9.10;;
19903;SDS011;10114;50.970;4.962;2023-05-07T05:55:49;14.10;;;8.48;;
19903;SDS011;10114;50.970;4.962;2023-05-07T05:58:16;13.13;;;8.15;;
19903;SDS011;10114;50.970;4.962;2023-05-07T06:00:42;13.68;;;8.80;;
19903;SDS011;10114;50.970;4.962;2023-05-07T06:03:08;12.55;;;8.43;;
19903;SDS011;10114;50.970;4.962;2023-05-07T06:05:35;14.52;;;8.77;;
19903;SDS011;10114;50.970;4.962;2023-05-07T06:08:01;14.30;;;8.52;;
19903;SDS011;10114;50.970;4.962;2023-05-07T06:10:27;12.05;;;7.50;;
19903;SDS011;10114;50.970;4.962;2023-05-07T06:12:56;11.13;;;7.85;;
19903;SDS011;10114;50.970;4.962;2023-05-07T06:15:22;11.45;;;7.65;;
19903;SDS011;10114;50.970;4.962;2023-05-07T06:17:48;13.60;;;7.93;;
19903;SDS011;10114;50.970;4.962;2023-05-07T06:20:15;12.43;;;7.75;;
19903;SDS011;10114;50.970;4.962;2023-05-07T06:22:41;13.18;;;8.15;;
19903;SDS011;10114;50.970;4.962;2023-05-07T06:25:08;14.75;;;7.40;;
19903;SDS011;10114;50.970;4.962;2023-05-07T06:27:35;13.82;;;7.85;;
19903;SDS011;10114;50.970;4.962;2023-05-07T06:30:01;14.45;;;7.70;;
19903;SDS011;10114;50.970;4.962;2023-05-07T06:32:29;13.63;;;8.20;;
19903;SDS011;10114;50.970;4.962;2023-05-07T06:34:55;13.70;;;7.90;;
19903;SDS011;10114;50.970;4.962;2023-05-07T06:37:22;13.07;;;8.10;;
19903;SDS011;10114;50.970;4.962;2023-05-07T06:39:49;13.82;;;8.65;;
19903;SDS011;10114;50.970;4.962;2023-05-07T06:42:16;13.10;;;8.07;;
19903;SDS011;10114;50.970;4.962;2023-05-07T06:44:42;15.63;;;7.80;;
19903;SDS011;10114;50.970;4.962;2023-05-07T06:47:08;16.98;;;8.48;;
19903;SDS011;10114;50.970;4.962;2023-05-07T06:49:35;13.40;;;7.57;;
19903;SDS011;10114;50.970;4.962;2023-05-07T06:52:02;12.43;;;8.48;;
19903;SDS011;10114;50.970;4.962;2023-05-07T06:54:28;12.48;;;7.53;;
19903;SDS011;10114;50.970;4.962;2023-05-07T06:56:55;13.38;;;8.25;;
19903;SDS011;10114;50.970;4.962;2023-05-07T06:59:22;12.77;;;7.78;;
19903;SDS011;10114;50.970;4.962;2023-05-07T07:01:48;10.30;;;7.18;;
19903;SDS011;10114;50.970;4.962;2023-05-07T07:04:14;10.90;;;7.20;;
19903;SDS011;10114;50.970;4.962;2023-05-07T07:06:40;11.15;;;7.63;;
19903;SDS011;10114;50.970;4.962;2023-05-07T07:09:07;12.23;;;7.03;;
19903;SDS011;10114;50.970;4.962;2023-05-07T07:11:34;12.95;;;6.22;;
19903;SDS011;10114;50.970;4.962;2023-05-07T07:14:01;13.75;;;6.55;;
19903;SDS011;10114;50.970;4.962;2023-05-07T07:16:27;12.40;;;6.57;;
19903;SDS011;10114;50.970;4.962;2023-05-07T07:18:53;10.60;;;5.85;;
19903;SDS011;10114;50.970;4.962;2023-05-07T07:21:19;12.18;;;6.72;;
19903;SDS011;10114;50.970;4.962;2023-05-07T07:23:45;11.88;;;5.97;;
19903;SDS011;10114;50.970;4.962;2023-05-07T07:26:11;11.63;;;6.28;;
19903;SDS011;10114;50.970;4.962;2023-05-07T07:28:47;10.60;;;6.03;;
19903;SDS011;10114;50.970;4.962;2023-05-07T07:31:13;8.75;;;5.63;;
19903;SDS011;10114;50.970;4.962;2023-05-07T07:33:40;12.70;;;6.55;;
19903;SDS011;10114;50.970;4.962;2023-05-07T07:36:06;11.35;;;6.03;;
19903;SDS011;10114;50.970;4.962;2023-05-07T07:38:32;12.07;;;6.28;;
19903;SDS011;10114;50.970;4.962;2023-05-07T07:40:59;10.88;;;6.50;;
19903;SDS011;10114;50.970;4.962;2023-05-07T07:43:25;12.68;;;5.80;;
19903;SDS011;10114;50.970;4.962;2023-05-07T07:45:53;10.02;;;6.18;;
19903;SDS011;10114;50.970;4.962;2023-05-07T07:48:19;11.38;;;5.50;;
19903;SDS011;10114;50.970;4.962;2023-05-07T07:50:45;12.90;;;6.30;;
19903;SDS011;10114;50.970;4.962;2023-05-07T07:53:14;14.07;;;7.20;;
19903;SDS011;10114;50.970;4.962;2023-05-07T07:55:40;12.73;;;6.53;;
19903;SDS011;10114;50.970;4.962;2023-05-07T07:58:07;12.90;;;6.43;;
19903;SDS011;10114;50.970;4.962;2023-05-07T08:00:33;12.57;;;6.20;;
19903;SDS011;10114;50.970;4.962;2023-05-07T08:02:59;12.10;;;6.20;;
19903;SDS011;10114;50.970;4.962;2023-05-07T08:05:26;12.85;;;6.53;;
19903;SDS011;10114;50.970;4.962;2023-05-07T08:07:52;13.32;;;6.78;;
19903;SDS011;10114;50.970;4.962;2023-05-07T08:10:18;19.63;;;7.10;;
19903;SDS011;10114;50.970;4.962;2023-05-07T08:12:46;12.93;;;6.70;;
19903;SDS011;10114;50.970;4.962;2023-05-07T08:15:12;12.35;;;6.38;;
19903;SDS011;10114;50.970;4.962;2023-05-07T08:17:38;10.95;;;5.97;;
19903;SDS011;10114;50.970;4.962;2023-05-07T08:20:04;14.20;;;7.13;;
19903;SDS011;10114;50.970;4.962;2023-05-07T08:22:30;11.75;;;6.22;;
19903;SDS011;10114;50.970;4.962;2023-05-07T08:24:56;13.82;;;6.40;;
19903;SDS011;10114;50.970;4.962;2023-05-07T08:27:22;13.65;;;6.32;;
19903;SDS011;10114;50.970;4.962;2023-05-07T08:29:48;13.18;;;6.47;;
19903;SDS011;10114;50.970;4.962;2023-05-07T08:32:14;12.45;;;7.00;;
19903;SDS011;10114;50.970;4.962;2023-05-07T08:34:40;15.43;;;6.57;;
19903;SDS011;10114;50.970;4.962;2023-05-07T08:37:06;13.07;;;6.20;;
19903;SDS011;10114;50.970;4.962;2023-05-07T08:39:32;14.98;;;5.88;;
19903;SDS011;10114;50.970;4.962;2023-05-07T08:42:00;12.63;;;6.18;;
19903;SDS011;10114;50.970;4.962;2023-05-07T08:44:31;14.63;;;5.65;;
19903;SDS011;10114;50.970;4.962;2023-05-07T08:46:58;13.45;;;6.40;;
19903;SDS011;10114;50.970;4.962;2023-05-07T08:49:27;10.98;;;6.43;;
19903;SDS011;10114;50.970;4.962;2023-05-07T08:51:53;16.30;;;6.70;;
19903;SDS011;10114;50.970;4.962;2023-05-07T08:54:20;14.18;;;6.90;;
19903;SDS011;10114;50.970;4.962;2023-05-07T08:56:46;15.23;;;7.07;;
19903;SDS011;10114;50.970;4.962;2023-05-07T08:59:12;16.60;;;6.70;;
19903;SDS011;10114;50.970;4.962;2023-05-07T09:01:40;14.52;;;7.57;;
19903;SDS011;10114;50.970;4.962;2023-05-07T09:04:06;17.10;;;7.38;;
19903;SDS011;10114;50.970;4.962;2023-05-07T09:06:32;17.80;;;7.38;;
19903;SDS011;10114;50.970;4.962;2023-05-07T09:08:59;14.07;;;6.57;;
19903;SDS011;10114;50.970;4.962;2023-05-07T09:11:26;14.32;;;6.38;;
19903;SDS011;10114;50.970;4.962;2023-05-07T09:13:55;13.48;;;6.43;;
19903;SDS011;10114;50.970;4.962;2023-05-07T09:16:23;10.85;;;5.97;;
19903;SDS011;10114;50.970;4.962;2023-05-07T09:18:53;10.30;;;5.80;;
19903;SDS011;10114;50.970;4.962;2023-05-07T09:21:20;13.68;;;5.70;;
19903;SDS011;10114;50.970;4.962;2023-05-07T09:23:51;13.30;;;5.38;;
19903;SDS011;10114;50.970;4.962;2023-05-07T09:26:17;12.90;;;5.15;;
19903;SDS011;10114;50.970;4.962;2023-05-07T09:28:43;12.82;;;5.85;;
19903;SDS011;10114;50.970;4.962;2023-05-07T09:31:11;12.50;;;5.50;;
19903;SDS011;10114;50.970;4.962;2023-05-07T09:33:38;12.23;;;5.07;;
19903;SDS011;10114;50.970;4.962;2023-05-07T09:36:04;12.63;;;4.68;;
19903;SDS011;10114;50.970;4.962;2023-05-07T09:38:34;10.20;;;3.90;;
19903;SDS011;10114;50.970;4.962;2023-05-07T09:41:04;13.68;;;3.55;;
19903;SDS011;10114;50.970;4.962;2023-05-07T09:43:34;10.02;;;3.60;;
19903;SDS011;10114;50.970;4.962;2023-05-07T09:46:02;10.35;;;3.60;;
19903;SDS011;10114;50.970;4.962;2023-05-07T09:48:29;12.32;;;3.50;;
19903;SDS011;10114;50.970;4.962;2023-05-07T09:50:55;10.25;;;3.53;;
19903;SDS011;10114;50.970;4.962;2023-05-07T09:53:23;9.43;;;2.97;;
19903;SDS011;10114;50.970;4.962;2023-05-07T09:55:50;9.45;;;2.75;;
19903;SDS011;10114;50.970;4.962;2023-05-07T09:58:16;8.68;;;2.80;;
19903;SDS011;10114;50.970;4.962;2023-05-07T10:00:44;8.73;;;3.40;;
19903;SDS011;10114;50.970;4.962;2023-05-07T10:03:11;10.45;;;3.25;;
19903;SDS011;10114;50.970;4.962;2023-05-07T10:05:39;11.13;;;3.10;;
19903;SDS011;10114;50.970;4.962;2023-05-07T10:08:05;9.48;;;3.22;;
19903;SDS011;10114;50.970;4.962;2023-05-07T10:10:32;10.95;;;3.67;;
19903;SDS011;10114;50.970;4.962;2023-05-07T10:12:59;9.73;;;3.70;;
19903;SDS011;10114;50.970;4.962;2023-05-07T10:15:26;10.68;;;3.97;;
19903;SDS011;10114;50.970;4.962;2023-05-07T10:17:52;13.23;;;4.25;;
19903;SDS011;10114;50.970;4.962;2023-05-07T10:20:19;11.77;;;4.30;;
19903;SDS011;10114;50.970;4.962;2023-05-07T10:22:45;12.18;;;4.25;;
19903;SDS011;10114;50.970;4.962;2023-05-07T10:25:28;12.82;;;4.45;;
19903;SDS011;10114;50.970;4.962;2023-05-07T10:27:55;12.98;;;4.75;;
19903;SDS011;10114;50.970;4.962;2023-05-07T10:32:59;11.50;;;5.50;;
19903;SDS011;10114;50.970;4.962;2023-05-07T10:35:31;16.27;;;5.88;;
19903;SDS011;10114;50.970;4.962;2023-05-07T10:37:58;13.70;;;4.95;;
19903;SDS011;10114;50.970;4.962;2023-05-07T10:40:24;11.80;;;5.75;;
19903;SDS011;10114;50.970;4.962;2023-05-07T10:42:54;14.65;;;5.38;;
19903;SDS011;10114;50.970;4.962;2023-05-07T10:45:21;11.85;;;5.00;;
19903;SDS011;10114;50.970;4.962;2023-05-07T10:50:32;12.73;;;3.75;;
19903;SDS011;10114;50.970;4.962;2023-05-07T10:55:43;10.40;;;4.57;;
19903;SDS011;10114;50.970;4.962;2023-05-07T11:00:48;13.95;;;5.47;;
19903;SDS011;10114;50.970;4.962;2023-05-07T11:03:14;12.75;;;6.03;;
19903;SDS011;10114;50.970;4.962;2023-05-07T11:05:40;14.40;;;6.10;;
19903;SDS011;10114;50.970;4.962;2023-05-07T11:08:07;14.48;;;6.43;;
19903;SDS011;10114;50.970;4.962;2023-05-07T11:13:15;9.77;;;4.88;;
19903;SDS011;10114;50.970;4.962;2023-05-07T11:15:42;14.20;;;4.13;;
19903;SDS011;10114;50.970;4.962;2023-05-07T11:18:09;9.68;;;4.22;;
19903;SDS011;10114;50.970;4.962;2023-05-07T11:20:52;11.45;;;4.43;;
19903;SDS011;10114;50.970;4.962;2023-05-07T11:26:03;8.70;;;4.70;;
19903;SDS011;10114;50.970;4.962;2023-05-07T11:28:30;11.85;;;4.57;;
19903;SDS011;10114;50.970;4.962;2023-05-07T11:30:56;9.60;;;4.50;;
19903;SDS011;10114;50.970;4.962;2023-05-07T11:33:22;10.40;;;4.50;;
19903;SDS011;10114;50.970;4.962;2023-05-07T11:35:50;13.57;;;4.47;;
19903;SDS011;10114;50.970;4.962;2023-05-07T11:38:17;11.02;;;4.20;;
19903;SDS011;10114;50.970;4.962;2023-05-07T11:40:53;12.43;;;4.57;;
19903;SDS011;10114;50.970;4.962;2023-05-07T11:43:22;11.00;;;4.38;;
19903;SDS011;10114;50.970;4.962;2023-05-07T11:45:48;9.35;;;5.20;;
19903;SDS011;10114;50.970;4.962;2023-05-07T11:48:15;9.00;;;4.55;;
19903;SDS011;10114;50.970;4.962;2023-05-07T11:50:59;9.07;;;5.03;;
19903;SDS011;10114;50.970;4.962;2023-05-07T11:53:26;11.48;;;4.35;;
19903;SDS011;10114;50.970;4.962;2023-05-07T11:55:53;10.85;;;4.70;;
19903;SDS011;10114;50.970;4.962;2023-05-07T11:58:23;12.45;;;5.43;;
19903;SDS011;10114;50.970;4.962;2023-05-07T12:00:49;10.50;;;3.85;;
19903;SDS011;10114;50.970;4.962;2023-05-07T12:03:15;10.02;;;3.80;;
19903;SDS011;10114;50.970;4.962;2023-05-07T12:05:43;7.93;;;2.88;;
19903;SDS011;10114;50.970;4.962;2023-05-07T12:08:13;7.55;;;3.05;;
19903;SDS011;10114;50.970;4.962;2023-05-07T12:10:46;13.50;;;3.38;;
19903;SDS011;10114;50.970;4.962;2023-05-07T12:13:23;9.13;;;3.15;;
19903;SDS011;10114;50.970;4.962;2023-05-07T12:15:53;12.13;;;3.33;;
19903;SDS011;10114;50.970;4.962;2023-05-07T12:18:19;11.38;;;3.30;;
19903;SDS011;10114;50.970;4.962;2023-05-07T12:20:45;12.00;;;3.70;;
19903;SDS011;10114;50.970;4.962;2023-05-07T12:23:12;8.43;;;2.88;;
19903;SDS011;10114;50.970;4.962;2023-05-07T12:25:39;12.30;;;3.13;;
19903;SDS011;10114;50.970;4.962;2023-05-07T12:28:07;11.20;;;3.28;;
19903;SDS011;10114;50.970;4.962;2023-05-07T12:30:37;10.05;;;3.75;;
19903;SDS011;10114;50.970;4.962;2023-05-07T12:33:03;11.35;;;3.78;;
19903;SDS011;10114;50.970;4.962;2023-05-07T12:35:29;10.85;;;3.78;;
19903;SDS011;10114;50.970;4.962;2023-05-07T12:37:59;8.70;;;3.35;;
19903;SDS011;10114;50.970;4.962;2023-05-07T12:41:02;11.80;;;3.10;;
19903;SDS011;10114;50.970;4.962;2023-05-07T12:43:24;6.47;;;2.58;;
19903;SDS011;10114;50.970;4.962;2023-05-07T12:45:51;9.40;;;3.17;;
19903;SDS011;10114;50.970;4.962;2023-05-07T12:48:17;11.20;;;2.50;;
19903;SDS011;10114;50.970;4.962;2023-05-07T12:50:43;7.30;;;2.67;;
19903;SDS011;10114;50.970;4.962;2023-05-07T12:53:10;6.82;;;2.55;;
19903;SDS011;10114;50.970;4.962;2023-05-07T12:55:40;9.90;;;3.10;;
19903;SDS011;10114;50.970;4.962;2023-05-07T12:58:07;6.68;;;2.70;;
19903;SDS011;10114;50.970;4.962;2023-05-07T13:00:37;7.90;;;2.65;;
19903;SDS011;10114;50.970;4.962;2023-05-07T13:03:03;6.38;;;2.80;;
19903;SDS011;10114;50.970;4.962;2023-05-07T13:05:30;7.40;;;3.10;;
19903;SDS011;10114;50.970;4.962;2023-05-07T13:07:56;8.38;;;3.25;;
19903;SDS011;10114;50.970;4.962;2023-05-07T13:10:23;7.50;;;3.45;;
19903;SDS011;10114;50.970;4.962;2023-05-07T13:12:49;8.68;;;3.25;;
19903;SDS011;10114;50.970;4.962;2023-05-07T13:15:15;9.98;;;3.67;;
19903;SDS011;10114;50.970;4.962;2023-05-07T13:17:41;8.88;;;4.00;;
19903;SDS011;10114;50.970;4.962;2023-05-07T13:20:11;11.30;;;3.83;;
19903;SDS011;10114;50.970;4.962;2023-05-07T13:22:40;8.57;;;3.47;;
19903;SDS011;10114;50.970;4.962;2023-05-07T13:25:06;9.00;;;4.05;;
19903;SDS011;10114;50.970;4.962;2023-05-07T13:27:33;9.65;;;3.85;;
19903;SDS011;10114;50.970;4.962;2023-05-07T13:30:01;8.77;;;3.78;;
19903;SDS011;10114;50.970;4.962;2023-05-07T13:32:27;12.55;;;3.42;;
19903;SDS011;10114;50.970;4.962;2023-05-07T13:34:53;5.85;;;3.17;;
19903;SDS011;10114;50.970;4.962;2023-05-07T13:37:20;8.80;;;3.55;;
19903;SDS011;10114;50.970;4.962;2023-05-07T13:39:46;9.02;;;2.88;;
19903;SDS011;10114;50.970;4.962;2023-05-07T13:42:12;8.82;;;2.97;;
19903;SDS011;10114;50.970;4.962;2023-05-07T13:44:38;8.05;;;3.58;;
19903;SDS011;10114;50.970;4.962;2023-05-07T13:47:04;10.13;;;3.05;;
19903;SDS011;10114;50.970;4.962;2023-05-07T13:49:30;10.38;;;3.40;;
19903;SDS011;10114;50.970;4.962;2023-05-07T13:51:56;8.82;;;3.28;;
19903;SDS011;10114;50.970;4.962;2023-05-07T13:54:22;10.38;;;4.03;;
19903;SDS011;10114;50.970;4.962;2023-05-07T13:56:48;9.57;;;3.67;;
19903;SDS011;10114;50.970;4.962;2023-05-07T13:59:14;8.25;;;3.42;;
19903;SDS011;10114;50.970;4.962;2023-05-07T14:01:40;7.25;;;3.40;;
19903;SDS011;10114;50.970;4.962;2023-05-07T14:04:06;6.38;;;3.13;;
19903;SDS011;10114;50.970;4.962;2023-05-07T14:06:32;9.70;;;2.80;;
19903;SDS011;10114;50.970;4.962;2023-05-07T14:08:58;9.07;;;3.38;;
19903;SDS011;10114;50.970;4.962;2023-05-07T14:11:25;8.77;;;2.97;;
19903;SDS011;10114;50.970;4.962;2023-05-07T14:13:51;7.18;;;3.03;;
19903;SDS011;10114;50.970;4.962;2023-05-07T14:16:17;8.18;;;3.20;;
19903;SDS011;10114;50.970;4.962;2023-05-07T14:18:43;11.40;;;3.85;;
19903;SDS011;10114;50.970;4.962;2023-05-07T14:21:09;10.02;;;2.42;;
19903;SDS011;10114;50.970;4.962;2023-05-07T14:23:35;7.22;;;2.75;;
19903;SDS011;10114;50.970;4.962;2023-05-07T14:26:01;8.05;;;2.45;;
19903;SDS011;10114;50.970;4.962;2023-05-07T14:28:27;6.80;;;2.30;;
19903;SDS011;10114;50.970;4.962;2023-05-07T14:30:53;5.00;;;2.28;;
19903;SDS011;10114;50.970;4.962;2023-05-07T14:33:19;6.20;;;1.92;;
19903;SDS011;10114;50.970;4.962;2023-05-07T14:35:45;3.78;;;1.88;;
19903;SDS011;10114;50.970;4.962;2023-05-07T14:38:13;6.13;;;2.00;;
19903;SDS011;10114;50.970;4.962;2023-05-07T14:40:40;6.72;;;1.67;;
19903;SDS011;10114;50.970;4.962;2023-05-07T14:43:06;9.05;;;1.95;;
19903;SDS011;10114;50.970;4.962;2023-05-07T14:45:32;4.90;;;1.95;;
19903;SDS011;10114;50.970;4.962;2023-05-07T14:47:58;9.35;;;2.33;;
19903;SDS011;10114;50.970;4.962;2023-05-07T14:50:24;5.47;;;2.10;;